createdAt,value
2023-05-17T00:01:58.149Z,100196.55
2023-05-17T00:04:27.933Z,100202.76
2023-05-17T00:06:57.365Z,100210.71
2023-05-17T00:09:26.777Z,100219.50
2023-05-17T00:11:56.275Z,100226.54
2023-05-17T00:14:25.978Z,100238.56
2023-05-17T00:16:55.299Z,100245.26
2023-05-17T00:19:25.425Z,100253.00
2023-05-17T00:21:54.812Z,100262.35
2023-05-17T00:24:24.190Z,100266.30
2023-05-17T00:26:53.715Z,100266.77
2023-05-17T00:29:23.236Z,100273.80
2023-05-17T00:31:53.014Z,100276.44
2023-05-17T00:34:22.422Z,100286.94
2023-05-17T00:36:52.209Z,100287.83
2023-05-17T00:39:21.554Z,100285.14
2023-05-17T00:41:50.852Z,100282.08
2023-05-17T00:44:20.468Z,100280.33
2023-05-17T00:46:50.641Z,100273.52
2023-05-17T00:49:20.201Z,100263.74
2023-05-17T00:51:49.555Z,100252.10
2023-05-17T00:54:19.525Z,100251.77
2023-05-17T00:56:50.049Z,100248.80
2023-05-17T00:59:21.693Z,100248.76
2023-05-17T01:01:52.562Z,100241.23
2023-05-17T01:04:21.944Z,100231.35
2023-05-17T01:06:51.638Z,100228.83
2023-05-17T01:09:21.406Z,100229.55
2023-05-17T01:12:17.077Z,100224.64
2023-05-17T01:15:28.116Z,100213.00
2023-05-17T01:18:15.956Z,100208.21
2023-05-17T01:20:47.715Z,100200.89
2023-05-17T01:23:45.118Z,100202.14
2023-05-17T01:26:23.692Z,100201.54
2023-05-17T01:28:56.557Z,100212.96
2023-05-17T01:31:27.239Z,100209.40
2023-05-17T01:33:59.176Z,100200.05
2023-05-17T01:36:30.981Z,100192.30
2023-05-17T01:39:01.911Z,100192.41
2023-05-17T01:41:43.288Z,100190.48
2023-05-17T01:44:21.796Z,100187.30
2023-05-17T01:46:57.813Z,100192.24
2023-05-17T01:49:40.225Z,100192.41
2023-05-17T01:52:17.249Z,100188.84
2023-05-17T01:55:00.579Z,100186.77
2023-05-17T01:57:35.821Z,100183.80
2023-05-17T02:00:09.521Z,100181.65
2023-05-17T02:02:47.944Z,100184.06
2023-05-17T02:05:17.442Z,100189.12
2023-05-17T02:07:46.951Z,100198.91
2023-05-17T02:10:16.367Z,100198.27
2023-05-17T02:12:45.975Z,100202.16
2023-05-17T02:15:16.748Z,100203.39
2023-05-17T02:17:47.005Z,100201.58
2023-05-17T02:20:17.746Z,100196.98
2023-05-17T02:22:47.422Z,100196.31
2023-05-17T02:25:17.001Z,100198.12
2023-05-17T02:27:46.319Z,100198.12
2023-05-17T02:30:18.355Z,100202.95
2023-05-17T02:32:48.677Z,100206.80
2023-05-17T02:35:17.992Z,100219.27
2023-05-17T02:37:47.783Z,100221.35
2023-05-17T02:40:17.695Z,100215.09
2023-05-17T02:42:46.908Z,100213.83
2023-05-17T02:45:16.507Z,100213.66
2023-05-17T02:47:45.898Z,100216.45
2023-05-17T02:50:15.797Z,100212.34
2023-05-17T02:52:45.349Z,100213.34
2023-05-17T02:55:15.027Z,100208.79
2023-05-17T02:57:44.637Z,100211.54
2023-05-17T03:00:15.204Z,100211.11
2023-05-17T03:02:44.483Z,100203.50
2023-05-17T03:05:14.284Z,100195.05
2023-05-17T03:07:48.643Z,100194.77
2023-05-17T03:10:18.006Z,100192.26
2023-05-17T03:12:48.292Z,100187.80
2023-05-17T03:15:21.025Z,100193.85
2023-05-17T03:17:50.608Z,100194.34
2023-05-17T03:20:20.539Z,100193.05
2023-05-17T03:22:51.257Z,100189.30
2023-05-17T03:25:20.458Z,100194.65
2023-05-17T03:27:50.286Z,100200.77
2023-05-17T03:30:20.851Z,100205.37
2023-05-17T03:32:50.711Z,100200.24
2023-05-17T03:35:20.527Z,100202.91
2023-05-17T03:37:54.364Z,100204.60
2023-05-17T03:40:23.629Z,100207.67
2023-05-17T03:42:54.367Z,100193.54
2023-05-17T03:45:24.083Z,100193.64
2023-05-17T03:47:53.726Z,100189.02
2023-05-17T03:50:23.618Z,100177.98
2023-05-17T03:52:53.082Z,100175.23
2023-05-17T03:55:22.927Z,100170.45
2023-05-17T03:57:52.426Z,100165.95
2023-05-17T04:00:22.292Z,100162.26
2023-05-17T04:02:52.957Z,100168.73
2023-05-17T04:05:22.387Z,100175.29
2023-05-17T04:07:52.810Z,100179.92
2023-05-17T04:10:22.832Z,100174.36
2023-05-17T04:12:53.249Z,100183.09
2023-05-17T04:15:22.870Z,100195.22
2023-05-17T04:17:52.053Z,100202.09
2023-05-17T04:20:22.121Z,100210.34
2023-05-17T04:22:52.076Z,100210.04
2023-05-17T04:25:22.833Z,100216.02
2023-05-17T04:27:52.346Z,100218.65
2023-05-17T04:30:22.191Z,100229.46
2023-05-17T04:32:51.988Z,100229.11
2023-05-17T04:35:21.846Z,100235.65
2023-05-17T04:37:53.889Z,100233.64
2023-05-17T04:40:24.983Z,100230.48
2023-05-17T04:42:54.588Z,100229.90
2023-05-17T04:45:24.298Z,100246.63
2023-05-17T04:47:54.404Z,100245.11
2023-05-17T04:50:23.975Z,100240.42
2023-05-17T04:52:53.486Z,100241.45
2023-05-17T04:55:23.456Z,100236.41
2023-05-17T04:57:53.116Z,100241.69
2023-05-17T05:00:24.060Z,100257.92
2023-05-17T05:02:59.673Z,100261.98
2023-05-17T05:05:29.202Z,100262.73
2023-05-17T05:07:59.177Z,100253.62
2023-05-17T05:10:29.812Z,100248.45
2023-05-17T05:13:00.127Z,100249.23
2023-05-17T05:15:32.087Z,100252.89
2023-05-17T05:18:02.370Z,100260.17
2023-05-17T05:20:33.149Z,100259.39
2023-05-17T05:23:06.140Z,100254.55
2023-05-17T05:25:38.418Z,100262.65
2023-05-17T05:28:10.668Z,100261.50
2023-05-17T05:30:41.204Z,100260.54
2023-05-17T05:33:10.927Z,100260.96
2023-05-17T05:35:41.454Z,100262.81
2023-05-17T05:38:10.890Z,100262.44
2023-05-17T05:40:40.260Z,100268.96
2023-05-17T05:43:09.745Z,100261.44
2023-05-17T05:45:41.428Z,100251.65
2023-05-17T05:48:10.711Z,100252.00
2023-05-17T05:50:45.139Z,100253.66
2023-05-17T05:53:18.939Z,100247.98
2023-05-17T05:55:58.789Z,100252.06
2023-05-17T05:58:30.161Z,100259.89
2023-05-17T06:01:00.462Z,100265.19
2023-05-17T06:03:30.274Z,100254.97
2023-05-17T06:05:59.940Z,100242.90
2023-05-17T06:08:29.694Z,100247.55
2023-05-17T06:10:59.403Z,100253.32
2023-05-17T06:13:28.913Z,100250.42
2023-05-17T06:15:59.853Z,100252.18
2023-05-17T06:18:29.656Z,100256.56
2023-05-17T06:20:59.397Z,100259.08
2023-05-17T06:23:28.679Z,100266.41
2023-05-17T06:25:58.104Z,100273.92
2023-05-17T06:28:27.482Z,100284.36
2023-05-17T06:30:56.686Z,100287.58
2023-05-17T06:33:26.796Z,100287.44
2023-05-17T06:35:58.197Z,100283.25
2023-05-17T06:38:27.850Z,100287.02
2023-05-17T06:40:58.674Z,100290.48
2023-05-17T06:43:28.095Z,100285.49
2023-05-17T06:45:57.815Z,100288.73
2023-05-17T06:48:27.426Z,100291.77
2023-05-17T06:50:57.087Z,100296.30
2023-05-17T06:53:27.652Z,100296.88
2023-05-17T06:55:57.003Z,100289.67
2023-05-17T06:58:26.865Z,100286.21
2023-05-17T07:00:56.401Z,100272.96
2023-05-17T07:03:26.597Z,100267.05
2023-05-17T07:05:56.510Z,100264.50
2023-05-17T07:08:26.131Z,100266.78
2023-05-17T07:10:55.728Z,100270.45
2023-05-17T07:13:25.028Z,100271.27
2023-05-17T07:15:54.967Z,100269.25
2023-05-17T07:18:24.367Z,100273.71
2023-05-17T07:20:54.177Z,100278.02
2023-05-17T07:23:23.571Z,100275.41
2023-05-17T07:25:52.919Z,100272.94
2023-05-17T07:28:22.782Z,100272.55
2023-05-17T07:30:52.534Z,100273.46
2023-05-17T07:33:22.158Z,100276.95
2023-05-17T07:35:51.545Z,100284.11
2023-05-17T07:38:21.212Z,100285.13
2023-05-17T07:40:51.570Z,100284.00
2023-05-17T07:43:23.911Z,100281.54
2023-05-17T07:45:53.187Z,100277.35
2023-05-17T07:48:24.984Z,100280.88
2023-05-17T07:50:55.036Z,100287.76
2023-05-17T07:53:24.515Z,100290.36
2023-05-17T07:55:54.205Z,100303.14
2023-05-17T07:58:23.711Z,100304.89
2023-05-17T08:00:53.625Z,100308.98
2023-05-17T08:03:23.142Z,100314.74
2023-05-17T08:05:52.554Z,100321.76
2023-05-17T08:08:22.147Z,100328.48
2023-05-17T08:10:51.631Z,100328.65
2023-05-17T08:13:20.830Z,100326.60
2023-05-17T08:15:53.660Z,100323.72
2023-05-17T08:18:27.920Z,100327.54
2023-05-17T08:20:58.068Z,100331.23
2023-05-17T08:23:27.467Z,100331.56
2023-05-17T08:25:56.863Z,100326.88
2023-05-17T08:28:26.448Z,100331.52
2023-05-17T08:30:55.989Z,100339.77
2023-05-17T08:33:26.409Z,100338.58
2023-05-17T08:35:58.073Z,100341.00
2023-05-17T08:38:27.352Z,100344.62
2023-05-17T08:40:57.054Z,100345.73
2023-05-17T08:43:27.883Z,100346.39
2023-05-17T08:45:58.355Z,100345.36
2023-05-17T08:48:31.530Z,100342.45
2023-05-17T08:51:04.124Z,100342.83
2023-05-17T08:53:35.765Z,100346.19
2023-05-17T08:56:07.211Z,100343.27
2023-05-17T08:58:52.355Z,100341.41
2023-05-17T09:01:27.909Z,100338.89
2023-05-17T09:03:59.543Z,100336.00
2023-05-17T09:06:32.775Z,100333.17
2023-05-17T09:09:02.277Z,100332.08
2023-05-17T09:11:35.413Z,100330.73
2023-05-17T09:14:07.290Z,100331.08
2023-05-17T09:16:38.057Z,100329.95
2023-05-17T09:19:09.734Z,100327.79
2023-05-17T09:21:39.134Z,100332.14
2023-05-17T09:24:08.801Z,100328.14
2023-05-17T09:26:46.509Z,100324.67
2023-05-17T09:29:16.933Z,100328.75
2023-05-17T09:31:46.408Z,100321.41
2023-05-17T09:34:19.794Z,100320.22
2023-05-17T09:36:49.898Z,100321.31
2023-05-17T09:39:19.507Z,100322.36
2023-05-17T09:41:50.247Z,100316.14
2023-05-17T09:44:19.477Z,100314.16
2023-05-17T09:46:49.349Z,100313.00
2023-05-17T09:49:18.825Z,100315.08
2023-05-17T09:51:49.771Z,100309.58
2023-05-17T09:54:19.604Z,100308.62
2023-05-17T09:56:55.946Z,100309.55
2023-05-17T09:59:28.866Z,100310.60
2023-05-17T10:02:00.557Z,100305.26
2023-05-17T10:04:32.886Z,100303.56
2023-05-17T10:07:02.301Z,100302.60
2023-05-17T10:09:35.909Z,100303.63
2023-05-17T10:12:08.091Z,100307.36
2023-05-17T10:14:38.682Z,100301.04
2023-05-17T10:17:09.267Z,100301.27
2023-05-17T10:19:39.270Z,100303.26
2023-05-17T10:22:21.717Z,100308.33
2023-05-17T10:24:52.509Z,100310.70
2023-05-17T10:27:22.402Z,100307.94
2023-05-17T10:29:54.243Z,100303.86
2023-05-17T10:32:27.240Z,100305.46
2023-05-17T10:35:09.153Z,100302.84
2023-05-17T10:37:41.778Z,100300.95
2023-05-17T10:40:13.926Z,100302.61
2023-05-17T10:42:50.969Z,100300.73
2023-05-17T10:45:25.815Z,100299.02
2023-05-17T10:47:56.750Z,100295.34
2023-05-17T10:50:28.215Z,100292.95
2023-05-17T10:52:59.169Z,100294.50
2023-05-17T10:55:42.736Z,100292.02
2023-05-17T10:58:20.178Z,100285.83
2023-05-17T11:00:55.749Z,100287.29
2023-05-17T11:03:30.325Z,100288.80
2023-05-17T11:06:24.501Z,100284.36
2023-05-17T11:09:32.645Z,100279.09
2023-05-17T11:12:13.966Z,100280.72
2023-05-17T11:14:47.917Z,100274.58
2023-05-17T11:17:24.952Z,100276.88
2023-05-17T11:20:13.608Z,100277.89
2023-05-17T11:23:07.875Z,100272.64
2023-05-17T11:25:39.699Z,100266.09
2023-05-17T11:28:19.548Z,100263.80
2023-05-17T11:30:52.464Z,100261.00
2023-05-17T11:33:46.601Z,100253.10
2023-05-17T11:36:22.152Z,100249.90
2023-05-17T11:39:12.207Z,100243.98
2023-05-17T11:41:50.257Z,100237.86
2023-05-17T11:44:35.214Z,100235.53
2023-05-17T11:47:09.924Z,100230.95
2023-05-17T11:49:40.427Z,100237.86
2023-05-17T11:52:10.601Z,100236.21
2023-05-17T11:54:40.708Z,100234.02
2023-05-17T11:57:13.298Z,100232.49
2023-05-17T11:59:45.881Z,100224.34
2023-05-17T12:02:30.644Z,100224.86
2023-05-17T12:05:00.157Z,100223.39
2023-05-17T12:07:30.781Z,100219.73
2023-05-17T12:10:00.225Z,100218.73
2023-05-17T12:12:29.668Z,100209.63
2023-05-17T12:14:59.298Z,100204.34
2023-05-17T12:17:37.889Z,100206.47
2023-05-17T12:20:11.118Z,100202.55
2023-05-17T12:22:57.380Z,100198.66
2023-05-17T12:25:29.515Z,100199.17
2023-05-17T12:28:23.045Z,100195.83
2023-05-17T12:30:58.014Z,100196.23
2023-05-17T12:33:28.866Z,100190.55
2023-05-17T12:35:59.274Z,100188.23
2023-05-17T12:38:33.189Z,100181.35
2023-05-17T12:41:04.879Z,100170.09
2023-05-17T12:43:36.481Z,100170.91
2023-05-17T12:46:20.729Z,100169.32
2023-05-17T12:48:52.416Z,100175.58
2023-05-17T12:51:23.891Z,100179.01
2023-05-17T12:53:59.946Z,100183.07
2023-05-17T12:56:30.702Z,100184.79
2023-05-17T12:59:13.443Z,100184.11
2023-05-17T13:01:56.026Z,100185.93
2023-05-17T13:04:36.986Z,100187.43
2023-05-17T13:07:06.575Z,100187.40
2023-05-17T13:09:48.616Z,100183.70
2023-05-17T13:12:25.201Z,100183.45
2023-05-17T13:14:55.171Z,100182.88
2023-05-17T13:17:37.298Z,100177.81
2023-05-17T13:20:10.574Z,100174.02
2023-05-17T13:22:47.452Z,100180.39
2023-05-17T13:25:16.788Z,100176.81
2023-05-17T13:27:49.056Z,100187.19
2023-05-17T13:30:18.247Z,100183.02
2023-05-17T13:32:47.687Z,100183.76
2023-05-17T13:35:17.064Z,100182.58
2023-05-17T13:37:46.287Z,100185.54
2023-05-17T13:40:16.287Z,100184.91
2023-05-17T13:42:45.676Z,100188.26
2023-05-17T13:45:15.082Z,100187.49
2023-05-17T13:47:44.893Z,100188.65
2023-05-17T13:50:17.583Z,100192.09
2023-05-17T13:52:47.000Z,100190.72
2023-05-17T13:55:16.310Z,100191.85
2023-05-17T13:57:46.102Z,100194.84
2023-05-17T14:00:16.386Z,100192.23
2023-05-17T14:02:45.571Z,100192.42
2023-05-17T14:05:15.745Z,100197.77
2023-05-17T14:07:46.115Z,100188.23
2023-05-17T14:10:15.325Z,100191.98
2023-05-17T14:12:44.765Z,100188.96
2023-05-17T14:15:14.304Z,100189.01
2023-05-17T14:17:43.745Z,100188.14
2023-05-17T14:20:14.485Z,100189.61
2023-05-17T14:22:43.937Z,100183.60
2023-05-17T14:25:13.161Z,100182.30
2023-05-17T14:27:43.540Z,100184.09
2023-05-17T14:30:14.812Z,100183.67
2023-05-17T14:32:44.838Z,100179.36
2023-05-17T14:35:16.620Z,100179.56
2023-05-17T14:37:45.871Z,100179.00
2023-05-17T14:40:15.270Z,100178.70
2023-05-17T14:42:44.557Z,100174.76
2023-05-17T14:45:13.872Z,100173.72
2023-05-17T14:47:43.687Z,100172.45
2023-05-17T14:50:13.181Z,100174.98
2023-05-17T14:52:42.383Z,100177.23
2023-05-17T14:55:12.345Z,100174.45
2023-05-17T14:57:42.055Z,100173.67
2023-05-17T15:00:12.432Z,100171.48
2023-05-17T15:02:41.827Z,100175.83
2023-05-17T15:05:11.691Z,100172.98
2023-05-17T15:07:40.970Z,100174.55
2023-05-17T15:10:13.232Z,100179.52
2023-05-17T15:12:42.827Z,100173.77
2023-05-17T15:15:12.846Z,100173.00
2023-05-17T15:17:42.910Z,100174.38
2023-05-17T15:20:13.685Z,100175.36
2023-05-17T15:22:43.106Z,100175.91
2023-05-17T15:25:12.536Z,100177.60
2023-05-17T15:27:41.944Z,100172.02
2023-05-17T15:30:13.554Z,100167.90
2023-05-17T15:32:43.085Z,100169.59
2023-05-17T15:35:12.672Z,100166.95
2023-05-17T15:37:42.029Z,100172.10
2023-05-17T15:40:12.307Z,100169.84
2023-05-17T15:42:41.608Z,100168.43
2023-05-17T15:45:11.973Z,100165.20
2023-05-17T15:47:43.475Z,100165.23
2023-05-17T15:50:14.072Z,100160.84
2023-05-17T15:52:43.519Z,100162.89
2023-05-17T15:55:13.536Z,100163.31
2023-05-17T15:57:43.060Z,100166.95
2023-05-17T16:00:13.535Z,100173.48
2023-05-17T16:02:43.163Z,100175.65
2023-05-17T16:05:12.690Z,100176.16
2023-05-17T16:07:42.299Z,100177.79
2023-05-17T16:10:12.002Z,100179.14
2023-05-17T16:12:41.299Z,100180.08
2023-05-17T16:15:11.860Z,100179.22
2023-05-17T16:17:41.091Z,100182.92
2023-05-17T16:20:12.283Z,100188.91
2023-05-17T16:22:46.523Z,100184.46
2023-05-17T16:25:19.986Z,100186.05
2023-05-17T16:27:49.437Z,100189.22
2023-05-17T16:30:19.309Z,100192.57
2023-05-17T16:32:48.659Z,100195.90
2023-05-17T16:35:22.213Z,100191.48
2023-05-17T16:37:51.935Z,100190.48
2023-05-17T16:40:21.257Z,100199.05
2023-05-17T16:42:50.646Z,100195.96
2023-05-17T16:45:21.157Z,100197.64
2023-05-17T16:47:51.514Z,100195.23
2023-05-17T16:50:21.011Z,100196.63
2023-05-17T16:52:50.516Z,100199.39
2023-05-17T16:55:19.796Z,100201.64
2023-05-17T16:57:49.161Z,100202.47
2023-05-17T17:00:20.315Z,100204.02
2023-05-17T17:02:49.623Z,100205.60
2023-05-17T17:05:20.497Z,100201.88
2023-05-17T17:07:50.167Z,100210.45
2023-05-17T17:10:20.553Z,100213.90
2023-05-17T17:12:50.380Z,100216.22
2023-05-17T17:15:19.980Z,100221.10
2023-05-17T17:17:49.615Z,100223.88
2023-05-17T17:20:19.163Z,100222.56
2023-05-17T17:22:48.659Z,100229.25
2023-05-17T17:25:19.307Z,100237.33
2023-05-17T17:27:48.555Z,100239.73
2023-05-17T17:30:17.685Z,100242.90
2023-05-17T17:32:47.015Z,100245.47
2023-05-17T17:35:16.500Z,100249.11
2023-05-17T17:37:45.804Z,100247.69
2023-05-17T17:40:15.500Z,100244.59
2023-05-17T17:42:44.935Z,100246.00
2023-05-17T17:45:16.859Z,100251.70
2023-05-17T17:47:46.015Z,100250.58
2023-05-17T17:50:15.678Z,100253.95
2023-05-17T17:52:44.977Z,100247.56
2023-05-17T17:55:15.506Z,100254.45
2023-05-17T17:57:45.928Z,100253.33
2023-05-17T18:00:16.520Z,100256.70
2023-05-17T18:02:46.191Z,100256.77
2023-05-17T18:05:16.618Z,100256.89
2023-05-17T18:07:48.152Z,100258.55
2023-05-17T18:10:17.755Z,100261.98
2023-05-17T18:12:47.534Z,100264.48
2023-05-17T18:15:18.411Z,100267.78
2023-05-17T18:17:51.477Z,100267.61
2023-05-17T18:20:26.532Z,100269.32
2023-05-17T18:22:56.250Z,100276.17
2023-05-17T18:25:25.548Z,100275.91
2023-05-17T18:27:55.053Z,100277.36
2023-05-17T18:30:25.166Z,100276.99
2023-05-17T18:32:54.508Z,100283.05
2023-05-17T18:35:23.796Z,100281.30
2023-05-17T18:37:53.437Z,100283.30
2023-05-17T18:40:22.642Z,100283.38
2023-05-17T18:42:53.220Z,100284.87
2023-05-17T18:45:22.822Z,100283.47
2023-05-17T18:47:52.393Z,100290.47
2023-05-17T18:50:22.038Z,100295.20
2023-05-17T18:52:51.535Z,100298.13
2023-05-17T18:55:23.211Z,100296.52
2023-05-17T18:57:52.493Z,100299.21
2023-05-17T19:00:21.840Z,100301.55
2023-05-17T19:02:51.244Z,100308.02
2023-05-17T19:05:20.837Z,100311.77
2023-05-17T19:07:50.307Z,100312.73
2023-05-17T19:10:20.880Z,100313.83
2023-05-17T19:12:50.125Z,100315.70
2023-05-17T19:15:19.980Z,100318.18
2023-05-17T19:17:49.216Z,100314.92
2023-05-17T19:20:19.083Z,100318.09
2023-05-17T19:22:48.235Z,100312.19
2023-05-17T19:25:18.992Z,100313.66
2023-05-17T19:27:50.143Z,100316.03
2023-05-17T19:30:19.656Z,100313.59
2023-05-17T19:32:49.972Z,100319.20
2023-05-17T19:35:19.593Z,100316.02
2023-05-17T19:37:48.887Z,100319.77
2023-05-17T19:40:22.356Z,100319.63
2023-05-17T19:42:51.460Z,100322.19
2023-05-17T19:45:21.010Z,100324.57
2023-05-17T19:47:50.734Z,100317.09
2023-05-17T19:50:20.921Z,100320.10
2023-05-17T19:52:50.481Z,100318.83
2023-05-17T19:55:22.388Z,100314.92
2023-05-17T19:57:52.091Z,100314.70
2023-05-17T20:00:21.500Z,100312.74
2023-05-17T20:02:51.414Z,100308.92
2023-05-17T20:05:21.492Z,100306.48
2023-05-17T20:07:50.899Z,100304.68
2023-05-17T20:10:20.558Z,100300.95
2023-05-17T20:12:49.957Z,100299.59
2023-05-17T20:15:19.562Z,100296.36
2023-05-17T20:17:49.761Z,100298.09
2023-05-17T20:20:19.382Z,100296.95
2023-05-17T20:22:48.680Z,100298.69
2023-05-17T20:25:18.193Z,100296.00
2023-05-17T20:27:47.588Z,100297.39
2023-05-17T20:30:16.902Z,100295.76
2023-05-17T20:32:46.049Z,100300.23
2023-05-17T20:35:15.594Z,100299.79
2023-05-17T20:37:45.007Z,100300.13
2023-05-17T20:40:14.550Z,100306.29
2023-05-17T20:42:46.094Z,100305.02
2023-05-17T20:45:17.830Z,100299.85
2023-05-17T20:47:47.353Z,100302.65
2023-05-17T20:50:18.964Z,100299.77
2023-05-17T20:52:50.228Z,100303.09
2023-05-17T20:55:19.642Z,100303.69
2023-05-17T20:57:49.134Z,100302.74
2023-05-17T21:00:21.005Z,100300.60
2023-05-17T21:02:50.568Z,100299.29
2023-05-17T21:05:20.129Z,100302.83
2023-05-17T21:07:50.604Z,100299.04
2023-05-17T21:10:20.623Z,100297.02
2023-05-17T21:12:50.166Z,100290.52
2023-05-17T21:15:20.085Z,100282.98
2023-05-17T21:17:49.684Z,100280.10
2023-05-17T21:20:21.383Z,100281.48
2023-05-17T21:22:52.591Z,100277.16
2023-05-17T21:25:22.218Z,100277.52
2023-05-17T21:27:51.590Z,100277.98
2023-05-17T21:30:24.067Z,100278.11
2023-05-17T21:32:53.526Z,100277.31
2023-05-17T21:35:23.193Z,100270.18
2023-05-17T21:37:52.285Z,100269.90
2023-05-17T21:40:21.502Z,100271.64
2023-05-17T21:42:50.968Z,100268.38
2023-05-17T21:45:20.575Z,100267.55
2023-05-17T21:47:49.730Z,100264.96
2023-05-17T21:50:19.504Z,100265.42
2023-05-17T21:52:48.822Z,100264.64
2023-05-17T21:55:18.014Z,100263.17
2023-05-17T21:57:47.401Z,100266.45
2023-05-17T22:00:17.364Z,100268.80
2023-05-17T22:02:47.607Z,100270.38
2023-05-17T22:05:17.880Z,100271.19
2023-05-17T22:07:47.378Z,100266.54
2023-05-17T22:10:17.999Z,100264.96
2023-05-17T22:12:50.442Z,100262.55
2023-05-17T22:15:22.168Z,100264.02
2023-05-17T22:17:52.955Z,100259.46
2023-05-17T22:20:24.046Z,100256.36
2023-05-17T22:22:53.443Z,100253.83
2023-05-17T22:25:23.225Z,100246.80
2023-05-17T22:27:52.730Z,100241.74
2023-05-17T22:30:22.242Z,100241.41
2023-05-17T22:32:54.881Z,100240.15
2023-05-17T22:35:24.757Z,100236.34
2023-05-17T22:37:54.219Z,100233.51
2023-05-17T22:40:23.387Z,100226.60
2023-05-17T22:42:52.647Z,100230.16
2023-05-17T22:45:22.458Z,100228.61
2023-05-17T22:47:52.804Z,100229.77
2023-05-17T22:50:24.741Z,100225.20
2023-05-17T22:52:53.966Z,100219.84
2023-05-17T22:55:24.384Z,100223.51
2023-05-17T22:57:54.028Z,100229.44
2023-05-17T23:00:26.357Z,100230.67
2023-05-17T23:02:55.856Z,100229.52
2023-05-17T23:05:25.465Z,100229.05
2023-05-17T23:07:55.788Z,100225.98
2023-05-17T23:10:25.128Z,100227.40
2023-05-17T23:12:58.182Z,100225.48
2023-05-17T23:15:28.492Z,100222.87
2023-05-17T23:17:59.837Z,100220.52
2023-05-17T23:20:29.766Z,100220.76
2023-05-17T23:22:59.889Z,100227.98
2023-05-17T23:25:29.590Z,100230.84
2023-05-17T23:27:59.217Z,100228.38
2023-05-17T23:30:29.900Z,100229.38
2023-05-17T23:33:00.357Z,100234.00
2023-05-17T23:35:30.280Z,100235.15
2023-05-17T23:37:59.983Z,100236.09
2023-05-17T23:40:30.834Z,100240.05
2023-05-17T23:43:00.880Z,100242.59
2023-05-17T23:45:31.326Z,100247.60
2023-05-17T23:48:02.282Z,100241.54
2023-05-17T23:50:31.707Z,100245.95
2023-05-17T23:53:03.549Z,100246.33
2023-05-17T23:55:33.798Z,100246.94
2023-05-17T23:58:03.402Z,100241.11
